Time;durP1;ratioP1;P1;durP2;ratioP2;P2;SDS_P1;SDS_P2;PMS_P1;PMS_P2;Temp;Humidity;BMP_temperature;BMP_pressure;BME280_temperature;BME280_humidity;BME280_pressure;Samples;Min_cycle;Max_cycle;Signal;HPM_P1;HPM_P2
2022/07/11 00:00:10;;;;;;;10.82;6.28;;;;;;;17.45;100.00;99632.45;1838410;77;21362;-44
2022/07/11 00:02:39;;;;;;;14.43;6.92;;;;;;;17.43;100.00;99630.39;1832700;75;20941;-44
2022/07/11 00:05:10;;;;;;;8.25;6.65;;;;;;;17.41;100.00;99627.03;1835990;75;20972;-44
2022/07/11 00:07:38;;;;;;;16.67;6.50;;;;;;;17.39;100.00;99617.12;1839078;77;20987;-43
2022/07/11 00:10:06;;;;;;;12.85;6.87;;;;;;;17.38;100.00;99621.98;1838727;77;21494;-43
2022/07/11 00:12:34;;;;;;;14.23;7.17;;;;;;;17.36;100.00;99622.06;1838889;77;20917;-44
2022/07/11 00:15:01;;;;;;;13.62;7.05;;;;;;;17.34;100.00;99622.63;1849250;77;20882;-44
2022/07/11 00:17:29;;;;;;;7.92;6.67;;;;;;;17.31;100.00;99618.89;1845465;77;20964;-44
2022/07/11 00:19:58;;;;;;;7.58;6.53;;;;;;;17.30;100.00;99618.97;1843175;75;20949;-44
2022/07/11 00:22:26;;;;;;;14.60;6.60;;;;;;;17.28;100.00;99619.53;1839707;77;20996;-44
2022/07/11 00:24:53;;;;;;;11.53;7.20;;;;;;;17.27;100.00;99615.23;1833405;75;22118;-44
2022/07/11 00:27:22;;;;;;;13.05;6.75;;;;;;;17.23;100.00;99620.65;1841238;75;20988;-44
2022/07/11 00:29:50;;;;;;;8.65;6.45;;;;;;;17.22;100.00;99608.99;1843818;75;20976;-44
2022/07/11 00:32:17;;;;;;;10.70;7.08;;;;;;;17.19;100.00;99609.18;1842245;77;20952;-44
2022/07/11 00:34:45;;;;;;;12.70;7.03;;;;;;;17.17;100.00;99612.33;1836532;77;20917;-44
2022/07/11 00:37:12;;;;;;;7.90;6.90;;;;;;;17.14;100.00;99614.67;1847215;75;21245;-44
2022/07/11 00:39:38;;;;;;;13.60;7.15;;;;;;;17.13;100.00;99617.36;1830043;77;20917;-44
2022/07/11 00:42:06;;;;;;;14.07;7.35;;;;;;;17.11;100.00;99617.92;1843069;75;20975;-44
2022/07/11 00:44:33;;;;;;;11.35;6.62;;;;;;;17.13;100.00;99619.98;1810482;77;20906;-44
2022/07/11 00:46:59;;;;;;;7.50;6.45;;;;;;;17.10;100.00;99617.09;1839868;77;21465;-44
2022/07/11 00:49:26;;;;;;;9.73;6.40;;;;;;;17.12;100.00;99610.45;1839553;75;21123;-44
2022/07/11 00:51:54;;;;;;;13.45;6.72;;;;;;;17.12;100.00;99611.31;1839540;75;20980;-45
2022/07/11 00:54:20;;;;;;;9.65;6.40;;;;;;;17.14;100.00;99615.13;1807257;77;20967;-45
2022/07/11 01:20:29;;;;;;;9.50;7.42;;;;;;;16.97;100.00;99586.89;1845960;77;21526;-43
2022/07/11 01:23:05;;;;;;;13.13;7.67;;;;;;;16.93;100.00;99578.38;1841248;75;21490;-43
2022/07/11 01:25:32;;;;;;;;;;;;;;;16.92;100.00;99582.37;1835611;77;20901;-43
2022/07/11 01:28:03;;;;;;;14.85;7.00;;;;;;;16.91;100.00;99582.00;1842912;75;20091;-43
2022/07/11 01:30:31;;;;;;;11.10;7.65;;;;;;;16.88;100.00;99584.34;1839406;75;20921;-43
2022/07/11 01:32:58;;;;;;;8.55;7.70;;;;;;;16.89;100.00;99579.49;1836150;77;21253;-43
2022/07/11 01:35:28;;;;;;;12.03;7.47;;;;;;;16.90;100.00;99574.64;1839722;77;20960;-43
2022/07/11 01:37:55;;;;;;;13.50;7.05;;;;;;;16.90;100.00;99578.56;1846333;75;21043;-44
2022/07/11 01:40:22;;;;;;;8.30;7.10;;;;;;;16.91;100.00;99585.47;1837793;77;20953;-44
2022/07/11 01:42:49;;;;;;;12.25;8.40;;;;;;;16.91;100.00;99581.55;1841911;77;21470;-44
2022/07/11 01:45:15;;;;;;;13.62;7.17;;;;;;;16.91;100.00;99579.38;1840398;77;21130;-44
2022/07/11 01:47:43;;;;;;;7.40;6.70;;;;;;;16.90;100.00;99579.87;1849196;77;20917;-44
2022/07/11 01:50:09;;;;;;;15.40;7.70;;;;;;;16.88;100.00;99584.34;1807278;77;21548;-44
2022/07/11 01:52:36;;;;;;;13.00;8.03;;;;;;;16.87;100.00;99583.97;1838619;77;20922;-44
2022/07/11 01:55:05;;;;;;;8.50;6.70;;;;;;;16.89;100.00;99587.78;1839960;77;20945;-44
2022/07/11 01:57:31;;;;;;;10.15;6.42;;;;;;;16.89;100.00;99587.78;1813042;77;21085;-44
2022/07/11 01:59:59;;;;;;;9.03;6.97;;;;;;;16.89;100.00;99587.78;1839649;77;21015;-44
2022/07/11 02:02:26;;;;;;;13.72;7.20;;;;;;;16.88;100.00;99588.27;1833742;77;21569;-44
2022/07/11 02:04:53;;;;;;;12.37;6.70;;;;;;;16.87;100.00;99591.81;1843151;75;20957;-44
2022/07/11 02:08:11;;;;;;;10.18;7.15;;;;;;;16.86;100.00;99585.35;1843179;77;21471;-44
2022/07/11 02:09:49;;;;;;;9.78;7.53;;;;;;;16.84;100.00;99584.60;1820004;75;22075;-44
2022/07/11 02:12:16;;;;;;;8.43;7.40;;;;;;;16.84;100.00;99594.61;1842076;77;21015;-44
2022/07/11 02:14:42;;;;;;;13.08;7.28;;;;;;;16.85;100.00;99594.12;1828344;75;20917;-44
2022/07/11 02:17:09;;;;;;;9.80;7.10;;;;;;;16.86;100.00;99591.44;1820720;77;20969;-44
2022/07/11 02:19:36;;;;;;;10.10;7.25;;;;;;;16.86;100.00;99600.58;1842352;77;21496;-44
2022/07/11 02:22:05;;;;;;;13.13;7.17;;;;;;;16.88;100.00;99595.25;1847180;75;21096;-44
2022/07/11 02:24:32;;;;;;;11.20;7.53;;;;;;;16.89;100.00;99596.93;1839858;75;20917;-44
2022/07/11 02:26:59;;;;;;;7.30;6.62;;;;;;;16.87;100.00;99591.81;1843091;75;20992;-44
2022/07/11 02:29:25;;;;;;;9.50;6.85;;;;;;;16.89;100.00;99596.93;1840354;75;20987;-44
2022/07/11 02:31:52;;;;;;;10.08;7.60;;;;;;;16.87;100.00;99592.26;1840639;77;20921;-44
2022/07/11 02:34:19;;;;;;;8.03;7.22;;;;;;;16.86;100.00;99594.50;1838069;75;21147;-44
2022/07/11 02:36:46;;;;;;;10.08;7.20;;;;;;;16.85;100.00;99596.28;1839507;77;20988;-44
2022/07/11 02:39:13;;;;;;;7.53;6.92;;;;;;;16.85;100.00;99599.35;1839138;77;20995;-44
2022/07/11 02:41:39;;;;;;;15.35;7.40;;;;;;;16.85;100.00;99599.35;1839168;75;20965;-44
2022/07/11 02:44:07;;;;;;;18.62;8.13;;;;;;;16.85;100.00;99600.20;1842592;75;21110;-44
2022/07/11 02:46:34;;;;;;;12.95;6.97;;;;;;;16.87;100.00;99594.88;1838493;77;21135;-44
2022/07/11 02:49:01;;;;;;;12.07;6.62;;;;;;;16.88;100.00;99600.48;1834295;77;21561;-44
2022/07/11 02:51:28;;;;;;;13.20;7.22;;;;;;;16.86;100.00;99597.97;1809348;77;20964;-44
2022/07/11 02:53:54;;;;;;;17.07;8.23;;;;;;;16.86;100.00;99593.19;1839950;75;20992;-44
2022/07/11 02:56:21;;;;;;;10.95;6.70;;;;;;;16.86;100.00;99601.89;1824418;76;20964;-44
2022/07/11 02:58:48;;;;;;;7.37;6.62;;;;;;;16.87;100.00;99598.80;1843253;75;21051;-44
2022/07/11 03:01:14;;;;;;;9.65;7.05;;;;;;;16.88;100.00;99604.39;1838274;77;20954;-44
2022/07/11 03:03:41;;;;;;;15.05;7.28;;;;;;;16.89;100.00;99600.40;1809333;77;20890;-44
2022/07/11 03:06:08;;;;;;;14.53;7.08;;;;;;;16.89;100.00;99600.40;1841640;75;21601;-44
2022/07/11 03:08:36;;;;;;;14.90;7.37;;;;;;;16.89;100.00;99593.86;1838418;77;20913;-44
2022/07/11 03:11:03;;;;;;;10.85;7.08;;;;;;;16.91;100.00;99595.92;1833232;75;21210;-44
2022/07/11 03:13:30;;;;;;;12.63;7.10;;;;;;;16.92;100.00;99594.98;1802442;78;21404;-44
2022/07/11 03:15:56;;;;;;;7.87;6.53;;;;;;;16.94;100.00;99604.89;1842969;75;20949;-44
2022/07/11 03:18:23;;;;;;;10.98;6.83;;;;;;;16.95;100.00;99597.42;1828300;75;21502;-44
2022/07/11 03:20:50;;;;;;;9.78;7.08;;;;;;;16.97;100.00;99599.10;1843140;77;20917;-44
2022/07/11 03:23:17;;;;;;;13.95;7.55;;;;;;;16.97;100.00;99599.95;1838175;77;21162;-45
2022/07/11 03:25:44;;;;;;;11.83;7.17;;;;;;;16.97;100.00;99603.02;1841816;75;20933;-44
2022/07/11 03:28:12;;;;;;;12.98;7.60;;;;;;;16.99;100.00;99605.11;1842715;75;20917;-44
2022/07/11 03:30:40;;;;;;;8.25;6.45;;;;;;;16.99;100.00;99605.11;1842951;75;21538;-44
2022/07/11 03:33:06;;;;;;;11.40;6.85;;;;;;;17.00;100.00;99603.73;1839322;75;21542;-44
2022/07/11 03:35:43;;;;;;;10.88;7.28;;;;;;;17.01;100.00;99604.55;1825982;77;21233;-44
2022/07/11 03:38:10;;;;;;;11.80;6.33;;;;;;;17.02;100.00;99610.16;1850152;75;21065;-45
2022/07/11 03:40:38;;;;;;;10.53;7.00;;;;;;;17.02;100.00;99605.78;1844847;77;21003;-45
2022/07/11 03:43:05;;;;;;;8.08;6.97;;;;;;;17.02;100.00;99604.47;1819772;77;20960;-44
2022/07/11 03:45:32;;;;;;;15.35;7.50;;;;;;;17.01;100.00;99612.39;1846234;75;20992;-44
2022/07/11 03:47:59;;;;;;;9.43;6.70;;;;;;;16.99;100.00;99605.96;1829928;77;21009;-44
2022/07/11 03:50:26;;;;;;;8.13;7.00;;;;;;;16.96;100.00;99607.42;1844022;75;20925;-45
2022/07/11 03:52:53;;;;;;;14.25;7.12;;;;;;;16.93;100.00;99605.81;1845579;77;21526;-46
2022/07/11 03:55:21;;;;;;;12.47;6.95;;;;;;;16.90;100.00;99597.30;1841000;77;21015;-44
2022/07/11 03:57:48;;;;;;;13.22;7.87;;;;;;;16.88;100.00;99601.78;1848940;75;21529;-45
2022/07/11 04:00:15;;;;;;;11.10;7.47;;;;;;;16.86;100.00;99605.81;1844731;75;21205;-45
2022/07/11 04:02:43;;;;;;;10.78;8.48;;;;;;;16.83;100.00;99605.99;1828293;75;20980;-45
2022/07/11 04:05:11;;;;;;;19.80;8.65;;;;;;;16.81;100.00;99607.38;1845455;77;20984;-45
2022/07/11 04:07:41;;;;;;;11.68;8.95;;;;;;;16.82;100.00;99603.00;1846919;77;21483;-45
2022/07/11 04:10:09;;;;;;;18.52;9.53;;;;;;;16.82;100.00;99609.53;1831850;77;20932;-45
2022/07/11 04:12:36;;;;;;;15.45;9.30;;;;;;;16.84;100.00;99601.59;1823035;78;21174;-44
2022/07/11 04:15:06;;;;;;;13.80;8.38;;;;;;;16.85;100.00;99609.35;1833860;77;20936;-45
2022/07/11 04:17:32;;;;;;;13.58;8.25;;;;;;;16.88;100.00;99603.09;1838644;77;20901;-45
2022/07/11 04:19:59;;;;;;;14.18;8.98;;;;;;;16.87;100.00;99604.87;1846170;77;21000;-44
2022/07/11 04:22:26;;;;;;;12.75;9.35;;;;;;;16.86;100.00;99605.81;1846469;75;20960;-44
2022/07/11 04:24:53;;;;;;;16.30;9.45;;;;;;;16.88;100.00;99601.33;1831717;77;21148;-44
2022/07/11 04:27:19;;;;;;;12.03;10.00;;;;;;;16.90;100.00;99607.76;1815891;77;21352;-45
2022/07/11 04:29:47;;;;;;;11.10;9.70;;;;;;;16.91;100.00;99601.15;1835780;76;20992;-45
2022/07/11 04:32:13;;;;;;;15.20;10.25;;;;;;;16.98;100.00;99603.39;1836029;77;21019;-45
2022/07/11 04:34:40;;;;;;;14.58;10.68;;;;;;;17.01;100.00;99600.62;1840445;76;20952;-45
2022/07/11 04:37:06;;;;;;;16.30;9.93;;;;;;;17.04;100.00;99603.91;1831386;76;21201;-45
2022/07/11 04:39:33;;;;;;;11.33;9.95;;;;;;;17.06;100.00;99594.69;1830320;77;20968;-45
2022/07/11 04:42:01;;;;;;;11.00;9.88;;;;;;;17.06;100.00;99592.89;1839693;76;21063;-45
2022/07/11 04:44:28;;;;;;;11.00;9.78;;;;;;;17.08;100.00;99589.72;1826647;77;20941;-45
2022/07/11 04:46:55;;;;;;;13.72;11.35;;;;;;;17.09;100.00;99597.12;1836152;77;20937;-45
2022/07/11 04:49:21;;;;;;;13.72;10.93;;;;;;;17.14;100.00;99604.22;1836474;76;21156;-45
2022/07/11 04:51:48;;;;;;;14.43;11.30;;;;;;;17.19;100.00;99603.47;1834909;76;20917;-45
2022/07/11 04:54:15;;;;;;;17.50;11.00;;;;;;;17.23;100.00;99608.88;1837580;76;21021;-45
2022/07/11 04:56:42;;;;;;;15.25;11.90;;;;;;;17.26;100.00;99605.70;1837172;77;20977;-45
2022/07/11 04:59:09;;;;;;;15.10;11.88;;;;;;;17.27;100.00;99608.25;1841746;76;20944;-44
2022/07/11 05:01:35;;;;;;;19.75;13.88;;;;;;;17.27;100.00;99604.77;1840085;77;22020;-45
2022/07/11 05:04:03;;;;;;;17.57;15.18;;;;;;;17.26;100.00;99615.72;1844652;76;20917;-45
2022/07/11 05:06:30;;;;;;;15.72;14.13;;;;;;;17.23;100.00;99614.11;1829516;77;21379;-45
2022/07/11 05:08:56;;;;;;;17.00;13.98;;;;;;;17.21;100.00;99617.29;1839253;76;21565;-45
2022/07/11 05:11:23;;;;;;;14.55;13.10;;;;;;;17.20;100.00;99625.24;1837467;76;20999;-45
2022/07/11 05:13:50;;;;;;;16.30;12.60;;;;;;;17.19;100.00;99622.25;1826156;77;21634;-45
2022/07/11 05:16:18;;;;;;;12.78;11.48;;;;;;;17.17;100.00;99622.33;1835644;77;20922;-45
2022/07/11 05:18:45;;;;;;;11.80;10.75;;;;;;;17.16;100.00;99624.57;1847235;77;20977;-45
2022/07/11 05:21:12;;;;;;;11.03;9.93;;;;;;;17.18;100.00;99629.72;1839770;76;21403;-45
2022/07/11 05:23:40;;;;;;;11.93;9.78;;;;;;;17.16;100.00;99625.88;1843574;77;21027;-45
2022/07/11 05:26:07;;;;;;;10.05;9.10;;;;;;;17.17;100.00;99629.31;1841768;77;21150;-45
2022/07/11 05:28:34;;;;;;;10.23;9.23;;;;;;;17.17;100.00;99631.48;1845580;75;21467;-45
2022/07/11 05:31:01;;;;;;;9.75;8.83;;;;;;;17.17;100.00;99628.87;1843112;75;20968;-44
2022/07/11 05:33:28;;;;;;;9.53;8.60;;;;;;;17.16;100.00;99631.11;1834778;77;20925;-44
2022/07/11 05:35:55;;;;;;;9.10;8.20;;;;;;;17.17;100.00;99632.79;1846441;75;21467;-45
2022/07/11 05:38:22;;;;;;;8.95;8.05;;;;;;;17.19;100.00;99641.38;1845593;77;21376;-45
2022/07/11 05:40:49;;;;;;;13.85;8.55;;;;;;;17.19;100.00;99642.69;1843015;75;20937;-45
2022/07/11 05:43:15;;;;;;;11.35;7.90;;;;;;;17.18;100.00;99639.70;1841767;75;20893;-45
2022/07/11 05:45:42;;;;;;;8.15;7.33;;;;;;;17.19;100.00;99640.08;1847093;77;20952;-45
2022/07/11 05:48:09;;;;;;;9.60;8.58;;;;;;;17.20;100.00;99640.94;1829682;75;20924;-45
2022/07/11 05:50:36;;;;;;;9.35;8.23;;;;;;;17.18;100.00;99646.23;1843218;75;21220;-44
2022/07/11 05:53:03;;;;;;;10.82;7.95;;;;;;;17.16;100.00;99650.72;1844364;77;21878;-45
2022/07/11 05:55:30;;;;;;;10.23;9.10;;;;;;;17.16;100.00;99644.63;1845331;77;21015;-44
2022/07/11 05:57:57;;;;;;;11.73;8.63;;;;;;;17.16;100.00;99641.56;1839621;75;20996;-45
2022/07/11 06:00:27;;;;;;;12.20;9.43;;;;;;;17.17;100.00;99647.62;1824338;77;20980;-45
2022/07/11 06:02:53;;;;;;;9.68;8.93;;;;;;;17.17;100.00;99657.63;1828792;75;21104;-45
2022/07/11 06:05:20;;;;;;;10.93;8.85;;;;;;;17.17;100.00;99657.63;1843722;75;21478;-45
2022/07/11 06:10:35;;;;;;;12.95;10.30;;;;;;;17.17;100.00;99662.86;1831682;77;20960;-45
2022/07/11 06:13:01;;;;;;;14.80;11.03;;;;;;;17.19;100.00;99662.30;1846164;77;21477;-45
2022/07/11 06:15:28;;;;;;;14.03;9.78;;;;;;;17.21;100.00;99665.66;1846482;75;21193;-45
2022/07/11 06:17:55;;;;;;;11.03;10.03;;;;;;;17.19;100.00;99666.22;1841756;77;21471;-45
2022/07/11 06:20:21;;;;;;;14.10;10.55;;;;;;;17.18;100.00;99664.55;1840551;77;20976;-45
2022/07/11 06:22:48;;;;;;;11.53;10.15;;;;;;;17.16;100.00;99671.64;1843290;75;20909;-45
2022/07/11 06:25:16;;;;;;;12.68;9.43;;;;;;;17.13;100.00;99671.81;1842824;75;21542;-45
2022/07/11 06:27:43;;;;;;;12.30;10.40;;;;;;;17.18;100.00;99668.95;1839690;75;21132;-44
2022/07/11 06:30:11;;;;;;;12.25;10.55;;;;;;;17.21;100.00;99670.07;1840109;75;21471;-45
2022/07/11 06:32:39;;;;;;;12.78;11.38;;;;;;;17.21;100.00;99666.97;1815457;75;20980;-45
2022/07/11 06:35:08;;;;;;;12.33;10.65;;;;;;;17.19;100.00;99666.22;1838370;77;20968;-45
2022/07/11 06:37:35;;;;;;;12.90;11.00;;;;;;;17.19;100.00;99667.53;1824277;75;22082;-45
2022/07/11 06:40:02;;;;;;;20.55;11.85;;;;;;;17.18;100.00;99671.08;1840991;75;21049;-45
2022/07/11 06:42:29;;;;;;;12.60;10.90;;;;;;;17.19;100.00;99670.14;1842670;77;21523;-44
2022/07/11 06:44:56;;;;;;;13.78;11.12;;;;;;;17.20;100.00;99670.52;1842829;75;21000;-45
2022/07/11 06:47:23;;;;;;;15.00;11.12;;;;;;;17.26;100.00;99665.86;1842250;75;20945;-45
2022/07/11 06:49:49;;;;;;;12.63;11.05;;;;;;;17.28;100.00;99662.23;1839581;77;20909;-45
2022/07/11 06:52:16;;;;;;;13.65;10.72;;;;;;;17.30;100.00;99672.13;1839725;77;21243;-44
2022/07/11 06:54:42;;;;;;;14.23;11.43;;;;;;;17.32;100.00;99662.42;1839255;75;21012;-45
2022/07/11 06:57:09;;;;;;;13.25;10.90;;;;;;;17.34;100.00;99668.88;1838082;75;21000;-45
2022/07/11 06:59:36;;;;;;;11.70;10.50;;;;;;;17.31;100.00;99675.13;1842963;75;20961;-45
2022/07/11 07:02:03;;;;;;;12.93;11.35;;;;;;;17.30;100.00;99681.28;1838469;77;20924;-45
2022/07/11 07:04:30;;;;;;;14.78;10.93;;;;;;;17.32;100.00;99679.91;1840827;75;21370;-45
2022/07/11 07:06:58;;;;;;;24.67;11.25;;;;;;;17.33;100.00;99686.81;1839238;75;20995;-45
2022/07/11 07:09:26;;;;;;;16.50;11.00;;;;;;;17.32;100.00;99680.73;1828287;77;20956;-45
2022/07/11 07:11:53;;;;;;;16.35;10.20;;;;;;;17.36;100.00;99680.91;1842966;75;20986;-44
2022/07/11 07:14:20;;;;;;;16.32;11.38;;;;;;;17.38;100.00;99680.36;1825310;76;20937;-45
2022/07/11 07:16:46;;;;;;;12.45;10.50;;;;;;;17.37;100.00;99681.29;1850043;77;21136;-45
2022/07/11 07:19:13;;;;;;;10.65;9.68;;;;;;;17.43;100.00;99678.78;1842999;77;20937;-45
2022/07/11 07:21:40;;;;;;;10.38;9.38;;;;;;;17.49;100.00;99674.48;1840493;77;20842;-45
2022/07/11 07:24:07;;;;;;;12.43;9.93;;;;;;;17.53;100.00;99677.77;1847195;75;21475;-45
2022/07/11 07:26:34;;;;;;;11.40;9.43;;;;;;;17.54;100.00;99678.14;1842649;77;20972;-45
2022/07/11 07:29:01;;;;;;;11.05;9.25;;;;;;;17.58;100.00;99679.64;1839205;77;21501;-45
2022/07/11 07:31:27;;;;;;;12.47;9.70;;;;;;;17.63;100.00;99686.73;1842520;77;20964;-45
2022/07/11 07:33:54;;;;;;;9.80;8.63;;;;;;;17.71;100.00;99692.83;1842871;77;21707;-45
2022/07/11 07:36:20;;;;;;;9.95;8.65;;;;;;;17.79;100.00;99694.50;1839976;77;20936;-45
2022/07/11 07:38:47;;;;;;;8.43;7.55;;;;;;;17.84;100.00;99696.02;1838013;75;20949;-45
2022/07/11 07:43:02;;;;;;;11.75;7.50;;;;;;;17.92;100.00;99695.08;1787199;79;22724;-44
2022/07/11 07:45:29;;;;;;;7.87;6.78;;;;;;;17.85;100.00;99698.53;1742476;81;20916;-44
2022/07/11 07:47:56;;;;;;;6.20;5.70;;;;;;;17.84;100.00;99705.19;1753948;80;22196;-44
2022/07/11 07:50:23;;;;;;;6.20;5.60;;;;;;;17.84;100.00;99707.80;1778423;80;21512;-44
2022/07/11 07:52:49;;;;;;;8.33;5.25;;;;;;;17.85;100.00;99704.25;1736061;81;20923;-44
2022/07/11 07:55:16;;;;;;;5.03;4.72;;;;;;;17.90;100.00;99706.11;1740731;81;20994;-44
2022/07/11 07:57:43;;;;;;;5.28;4.78;;;;;;;17.93;100.00;99709.36;1715520;83;20932;-44
2022/07/11 08:03:09;;;;;;;5.37;4.92;;;;;;;18.00;100.00;99710.32;1731292;81;20966;-44
2022/07/11 08:05:37;;;;;;;6.25;5.83;;;;;;;18.06;100.00;99707.34;1725035;83;21109;-44
2022/07/11 08:08:04;;;;;;;5.30;4.95;;;;;;;18.13;100.00;99707.81;1721314;83;21059;-44
2022/07/11 08:10:31;;;;;;;6.53;5.17;;;;;;;18.20;100.00;99704.73;1712655;82;20955;-44
2022/07/11 08:12:58;;;;;;;5.30;4.80;;;;;;;18.28;100.00;99709.46;1740020;81;21073;-44
2022/07/11 08:15:24;;;;;;;6.87;5.28;;;;;;;18.32;100.00;99708.36;1735565;81;21203;-44
2022/07/11 08:17:52;;;;;;;5.03;4.70;;;;;;;18.31;100.00;99704.52;1747682;81;20995;-44
2022/07/11 08:20:19;;;;;;;5.30;4.90;;;;;;;18.36;100.00;99707.67;1715811;82;21003;-44
2022/07/11 08:22:46;;;;;;;5.30;4.80;;;;;;;18.43;100.00;99706.83;1735424;81;21038;-44
2022/07/11 08:25:13;;;;;;;4.80;4.50;;;;;;;18.50;100.00;99710.73;1739752;81;21050;-44
2022/07/11 08:27:40;;;;;;;4.60;4.17;;;;;;;18.48;100.00;99709.99;1719221;83;20972;-45
2022/07/11 08:30:10;;;;;;;3.90;3.70;;;;;;;18.49;100.00;99707.29;1719659;82;21026;-44
2022/07/11 08:32:40;;;;;;;6.87;3.98;;;;;;;18.50;100.00;99714.21;1729340;82;21517;-45
2022/07/11 08:35:08;;;;;;;4.28;3.52;;;;;;;18.46;100.00;99721.04;1718024;82;20996;-45
2022/07/11 08:37:36;;;;;;;3.85;3.65;;;;;;;18.51;100.00;99721.13;1750633;81;21137;-45
2022/07/11 08:40:04;;;;;;;3.42;3.33;;;;;;;18.57;100.00;99716.43;1715777;83;20936;-46
2022/07/11 08:42:31;;;;;;;4.25;3.90;;;;;;;18.66;100.00;99724.55;1705335;82;21033;-45
2022/07/11 08:44:58;;;;;;;4.53;3.37;;;;;;;18.69;100.00;99720.05;1768688;80;21031;-45
2022/07/11 08:47:25;;;;;;;3.60;3.40;;;;;;;18.66;100.00;99724.55;1757969;80;21034;-45
2022/07/11 08:49:52;;;;;;;3.83;3.62;;;;;;;18.73;100.00;99725.45;1727940;82;21185;-45
2022/07/11 08:52:19;;;;;;;3.70;3.50;;;;;;;18.74;100.00;99728.45;1701867;83;21040;-45
2022/07/11 08:54:46;;;;;;;3.65;3.42;;;;;;;18.68;100.00;99732.30;1744315;80;21014;-45
2022/07/11 08:57:13;;;;;;;4.30;4.10;;;;;;;18.61;100.00;99725.32;1762409;80;20991;-46
2022/07/11 08:59:41;;;;;;;3.75;3.60;;;;;;;18.53;100.00;99726.26;1767572;80;20995;-46
2022/07/11 09:02:09;;;;;;;5.05;4.55;;;;;;;18.46;100.00;99729.75;1766368;80;21756;-45
2022/07/11 09:04:35;;;;;;;4.95;4.58;;;;;;;18.41;100.00;99727.05;1749550;80;20963;-45
2022/07/11 09:07:03;;;;;;;5.05;4.22;;;;;;;18.42;100.00;99726.93;1758066;80;20979;-45
2022/07/11 09:09:31;;;;;;;4.60;4.40;;;;;;;18.50;100.00;99726.00;1739726;82;20967;-45
2022/07/11 09:11:58;;;;;;;4.42;4.22;;;;;;;18.71;100.00;99727.34;1705378;83;20961;-46
2022/07/11 09:14:27;;;;;;;4.87;4.17;;;;;;;18.88;100.00;99733.66;1722077;82;21136;-46
2022/07/11 09:16:56;;;;;;;8.73;3.92;;;;;;;19.10;100.00;99733.61;1728408;82;20999;-45
2022/07/11 09:19:25;;;;;;;6.37;4.10;;;;;;;19.26;100.00;99739.98;1722916;82;20921;-45
2022/07/11 09:27:56;;;;;;;9.08;5.12;;;;;;;19.20;100.00;99737.29;1763912;80;21113;-44
2022/07/11 09:30:28;;;;;;;5.50;5.10;;;;;;;19.22;100.00;99745.89;1759790;80;20943;-44
2022/07/11 09:33:01;;;;;;;6.50;5.97;;;;;;;19.26;100.00;99743.92;1764724;80;21402;-44
2022/07/11 09:35:35;;;;;;;6.10;5.70;;;;;;;19.29;100.00;99751.59;1763369;80;21014;-45
2022/07/11 09:38:07;;;;;;;6.37;5.87;;;;;;;19.27;100.00;99746.91;1769136;80;21612;-45
2022/07/11 09:40:35;;;;;;;7.22;6.47;;;;;;;19.26;100.00;99750.48;1765672;80;21486;-45
2022/07/11 09:43:02;;;;;;;7.58;6.65;;;;;;;19.26;100.00;99747.86;1760575;80;20884;-44
2022/07/11 09:45:33;;;;;;;7.28;6.67;;;;;;;19.23;100.00;99749.37;1769797;80;20967;-45
2022/07/11 09:48:11;;;;;;;7.08;6.37;;;;;;;19.17;100.00;99764.18;1750395;80;20955;-45
2022/07/11 09:50:42;;;;;;;8.55;7.40;;;;;;;19.04;100.00;99762.38;1772439;80;20982;-45
2022/07/11 09:53:11;;;;;;;8.60;7.80;;;;;;;18.94;100.00;99763.86;1764116;80;21226;-44
2022/07/11 09:55:46;;;;;;;8.20;7.45;;;;;;;18.82;100.00;99764.21;1736155;80;20939;-45
2022/07/11 09:58:16;;;;;;;8.95;8.10;;;;;;;18.71;100.00;99769.28;1773831;80;20939;-44
2022/07/11 10:00:44;;;;;;;9.08;8.18;;;;;;;18.58;100.00;99771.83;1764932;80;21011;-44
2022/07/11 10:03:12;;;;;;;11.65;8.98;;;;;;;18.49;100.00;99768.01;1763310;80;20970;-45
2022/07/11 10:05:39;;;;;;;12.07;8.65;;;;;;;18.51;100.00;99770.91;1763370;80;21800;-44
2022/07/11 10:08:06;;;;;;;9.58;8.68;;;;;;;18.58;100.00;99764.83;1719105;81;21545;-45
2022/07/11 10:10:33;;;;;;;7.95;7.12;;;;;;;18.72;100.00;99766.57;1724946;82;21550;-45
2022/07/11 10:13:00;;;;;;;8.33;7.50;;;;;;;18.87;100.00;99767.38;1701499;83;21001;-44
2022/07/11 10:15:34;;;;;;;12.23;6.83;;;;;;;18.91;100.00;99771.93;1764300;80;20963;-45
2022/07/11 10:18:34;;;;;;;8.68;6.05;;;;;;;18.89;100.00;99773.36;1748820;80;20988;-46
2022/07/11 10:21:15;;;;;;;8.18;5.75;;;;;;;18.89;100.00;99768.56;1735545;80;21018;-44
2022/07/11 10:23:50;;;;;;;8.90;5.92;;;;;;;19.00;100.00;99770.08;1762809;80;20963;-44
2022/07/11 10:26:29;;;;;;;8.28;5.22;;;;;;;19.17;100.00;99763.73;1758429;80;20983;-44
2022/07/11 10:29:09;;;;;;;6.12;5.20;;;;;;;19.35;100.00;99768.23;1769431;80;20994;-44
2022/07/11 10:31:36;;;;;;;6.95;5.25;;;;;;;19.59;100.00;99765.39;1719885;82;21152;-44
2022/07/11 10:34:10;;;;;;;6.33;5.17;;;;;;;19.70;100.00;99763.33;1699453;83;20933;-45
2022/07/11 10:36:41;;;;;;;6.45;5.30;;;;;;;19.82;100.00;99771.21;1725956;82;20991;-45
2022/07/11 10:39:24;;;;;;;7.42;5.25;;;;;;;19.95;100.00;99772.55;1721758;82;20952;-44
2022/07/11 10:41:50;;;;;;;7.28;5.30;;;;;;;20.02;100.00;99772.98;1722345;82;21027;-45
2022/07/11 10:44:19;;;;;;;4.72;4.33;;;;;;;20.07;100.00;99773.98;1738361;82;21631;-45
2022/07/11 10:46:49;;;;;;;5.42;4.92;;;;;;;20.12;100.00;99778.94;1683651;83;21047;-44
2022/07/11 10:49:31;;;;;;;4.75;4.33;;;;;;;20.15;100.00;99780.03;1715666;82;20948;-44
2022/07/11 10:52:07;;;;;;;5.97;5.03;;;;;;;20.19;100.00;99783.62;1735203;80;21600;-44
2022/07/11 10:54:44;;;;;;;;;;;;;;;20.33;100.00;99788.41;1708993;82;21034;-44
2022/07/11 10:57:42;;;;;;;9.25;4.92;;;;;;;20.42;100.00;99791.69;1707594;82;21226;-44
2022/07/11 11:00:14;;;;;;;5.67;5.22;;;;;;;20.29;100.00;99798.28;1724623;82;21067;-45
2022/07/11 11:03:07;;;;;;;7.17;5.47;;;;;;;20.04;100.00;99799.98;1716896;82;20999;-43
2022/07/11 11:05:44;;;;;;;5.53;5.00;;;;;;;19.80;100.00;99810.35;1720183;82;21030;-43
2022/07/11 11:08:36;;;;;;;5.85;5.30;;;;;;;19.58;100.00;99809.62;1738328;82;21059;-44
2022/07/11 11:11:09;;;;;;;6.45;4.83;;;;;;;19.45;100.00;99808.27;1735218;82;21220;-43
2022/07/11 11:13:36;;;;;;;12.00;6.33;;;;;;;19.42;100.00;99810.65;1702562;83;21067;-43
2022/07/11 11:16:24;;;;;;;5.55;4.72;;;;;;;19.51;100.00;99810.03;1711312;83;20924;-43
2022/07/11 11:18:51;;;;;;;6.40;5.83;;;;;;;19.61;100.00;99806.81;1711292;82;20928;-44
2022/07/11 11:21:19;;;;;;;8.85;4.80;;;;;;;19.79;100.00;99817.37;1741252;82;21027;-45
2022/07/11 11:24:02;;;;;;;5.10;4.42;;;;;;;19.92;100.00;99813.48;1720146;82;21181;-44
2022/07/11 11:26:50;;;;;;;8.63;5.40;;;;;;;20.03;100.00;99806.67;1733021;82;21502;-43
2022/07/11 11:29:26;;;;;;;5.15;4.72;;;;;;;20.23;100.00;99803.52;1703397;83;20940;-45
2022/07/11 11:31:55;;;;;;;6.72;4.90;;;;;;;20.35;100.00;99808.84;1698621;83;20988;-45
2022/07/11 11:34:22;;;;;;;4.95;4.50;;;;;;;20.53;100.00;99804.94;1737514;81;20959;-45
2022/07/11 11:36:59;;;;;;;5.70;5.20;;;;;;;20.61;99.91;99813.59;1720100;82;21184;-45
2022/07/11 11:39:34;;;;;;;5.05;4.58;;;;;;;20.73;100.00;99814.98;1707418;82;20956;-45
2022/07/11 11:42:04;;;;;;;;;;;;;;;20.88;98.81;99811.29;1720801;82;20968;-46
2022/07/11 11:44:33;;;;;;;7.10;5.25;;;;;;;21.13;97.57;99808.20;1708537;83;20583;-45
2022/07/11 11:47:00;;;;;;;5.58;4.20;;;;;;;21.49;95.30;99809.53;1730675;82;20972;-45
2022/07/11 11:49:27;;;;;;;4.12;3.80;;;;;;;21.64;90.43;99810.17;1701103;83;21240;-45
2022/07/11 11:51:55;;;;;;;4.20;3.90;;;;;;;21.77;90.83;99811.44;1725436;82;20991;-45
2022/07/11 11:54:25;;;;;;;3.85;3.25;;;;;;;22.05;90.90;99812.78;1705245;83;21032;-45
2022/07/11 11:56:51;;;;;;;3.83;3.52;;;;;;;22.35;89.70;99804.75;1760718;80;21492;-45
2022/07/11 11:59:18;;;;;;;4.53;3.67;;;;;;;22.76;86.96;99809.55;1762426;80;21002;-45
2022/07/11 12:01:47;;;;;;;3.60;3.33;;;;;;;23.17;87.35;99817.25;1719778;80;21128;-45
2022/07/11 12:04:15;;;;;;;3.72;3.42;;;;;;;23.36;82.61;99807.82;1766192;80;20954;-45